Time;durP1;ratioP1;P1;durP2;ratioP2;P2;SDS_P1;SDS_P2;PMS_P1;PMS_P2;Temp;Humidity;BMP_temperature;BMP_pressure;BME280_temperature;BME280_humidity;BME280_pressure;Samples;Min_cycle;Max_cycle;Signal;HPM_P1;HPM_P2
2024/02/22 00:00:43;;;;;;;2.23;1.60;;;21.50;56.20;;;;;;5051172;28;20413;-69
2024/02/22 00:03:09;;;;;;;2.20;1.50;;;21.50;56.20;;;;;;5051002;28;20274;-70
2024/02/22 00:05:35;;;;;;;3.73;1.80;;;21.50;56.30;;;;;;5050982;28;20269;-69
2024/02/22 00:08:00;;;;;;;3.20;1.87;;;21.50;56.20;;;;;;5051178;28;20167;-69
2024/02/22 00:10:31;;;;;;;3.00;1.70;;;21.50;56.30;;;;;;5051029;28;20213;-69
2024/02/22 00:12:58;;;;;;;3.47;1.73;;;21.50;56.30;;;;;;5051196;28;20690;-69
2024/02/22 00:15:25;;;;;;;2.83;1.80;;;21.50;56.30;;;;;;5051763;28;20821;-69
2024/02/22 00:17:50;;;;;;;3.53;2.13;;;21.50;56.30;;;;;;5051319;28;20778;-70
2024/02/22 00:20:17;;;;;;;1.90;1.20;;;21.50;56.30;;;;;;5051425;28;20394;-69
2024/02/22 00:22:46;;;;;;;2.10;1.60;;;21.50;56.30;;;;;;5051054;28;20198;-69
2024/02/22 00:25:12;;;;;;;1.90;1.70;;;21.50;56.30;;;;;;5051127;28;20401;-70
2024/02/22 00:27:38;;;;;;;2.00;1.53;;;21.50;56.30;;;;;;5051055;28;20463;-69
2024/02/22 00:30:14;;;;;;;2.77;1.90;;;21.50;56.30;;;;;;5050848;28;20175;-69
2024/02/22 00:32:41;;;;;;;1.93;1.50;;;21.50;56.30;;;;;;5051228;28;20433;-69
2024/02/22 00:35:07;;;;;;;2.57;1.90;;;21.50;56.30;;;;;;5049431;28;20418;-69
2024/02/22 00:37:35;;;;;;;2.10;1.40;;;21.50;56.30;;;;;;5050882;28;20776;-67
2024/02/22 00:40:08;;;;;;;2.80;2.00;;;21.50;56.30;;;;;;5050843;28;20401;-69
2024/02/22 00:42:34;;;;;;;2.27;1.40;;;21.50;56.30;;;;;;5050857;28;20436;-70
2024/02/22 00:44:59;;;;;;;2.80;1.57;;;21.50;56.30;;;;;;5050981;28;20468;-69
2024/02/22 00:47:25;;;;;;;1.87;1.40;;;21.50;56.30;;;;;;5051142;28;20493;-68
2024/02/22 00:49:51;;;;;;;2.30;1.60;;;21.50;56.30;;;;;;5050833;28;20810;-68
2024/02/22 00:52:17;;;;;;;2.50;2.03;;;21.50;56.40;;;;;;5052373;28;20301;-69
2024/02/22 00:54:43;;;;;;;1.93;1.17;;;21.50;56.40;;;;;;5054509;28;20969;-69
2024/02/22 00:57:09;;;;;;;2.80;2.10;;;21.50;56.40;;;;;;5054840;28;20171;-69
2024/02/22 00:59:35;;;;;;;2.63;1.83;;;21.50;56.40;;;;;;5054549;28;20504;-69
2024/02/22 01:02:01;;;;;;;3.23;1.47;;;21.50;56.40;;;;;;5054603;28;20198;-69
2024/02/22 01:04:27;;;;;;;4.07;1.73;;;21.50;56.40;;;;;;5053391;28;20185;-68
2024/02/22 01:06:54;;;;;;;2.17;1.67;;;21.50;56.40;;;;;;5054858;28;20504;-69
2024/02/22 01:09:20;;;;;;;1.87;1.40;;;21.50;56.40;;;;;;5054659;28;20417;-69
2024/02/22 01:11:46;;;;;;;1.87;1.67;;;21.50;56.40;;;;;;5053067;28;21010;-69
2024/02/22 01:14:12;;;;;;;2.97;1.60;;;21.50;56.40;;;;;;5054522;28;20413;-69
2024/02/22 01:16:38;;;;;;;2.60;1.90;;;21.50;56.40;;;;;;5054585;28;20410;-69
2024/02/22 01:19:03;;;;;;;1.77;1.40;;;21.50;56.40;;;;;;5054267;28;20519;-69
2024/02/22 01:21:30;;;;;;;4.80;1.60;;;21.50;56.40;;;;;;5054007;28;20175;-69
2024/02/22 01:23:56;;;;;;;1.67;1.40;;;21.40;56.30;;;;;;5054188;28;20733;-69
2024/02/22 01:26:22;;;;;;;1.97;1.50;;;21.40;56.30;;;;;;5054499;28;20504;-69
2024/02/22 01:28:50;;;;;;;2.50;1.60;;;21.40;56.30;;;;;;5054157;28;20932;-69
2024/02/22 01:31:16;;;;;;;2.50;1.73;;;21.50;56.40;;;;;;5054057;28;20457;-67
2024/02/22 01:33:43;;;;;;;2.33;1.50;;;21.40;56.30;;;;;;5055030;28;20440;-70
2024/02/22 01:36:11;;;;;;;2.40;1.53;;;21.40;56.30;;;;;;5052828;28;20206;-69
2024/02/22 01:38:37;;;;;;;2.40;1.40;;;21.40;56.30;;;;;;5054085;28;20454;-69
2024/02/22 01:41:02;;;;;;;1.90;1.70;;;21.40;56.30;;;;;;5053841;28;20500;-69
2024/02/22 01:43:28;;;;;;;2.33;1.77;;;21.50;56.40;;;;;;5052423;28;20217;-69
2024/02/22 01:45:56;;;;;;;2.17;1.70;;;21.40;56.40;;;;;;5054103;28;20175;-68
2024/02/22 01:48:22;;;;;;;2.43;1.73;;;21.40;56.30;;;;;;5053834;28;20179;-69
2024/02/22 01:50:52;;;;;;;2.57;1.40;;;21.40;56.40;;;;;;5052670;28;20472;-70
2024/02/22 01:53:19;;;;;;;2.20;1.50;;;21.40;56.30;;;;;;5054149;28;20278;-70
2024/02/22 01:55:45;;;;;;;3.30;2.10;;;21.40;56.30;;;;;;5053739;28;20825;-69
2024/02/22 01:58:12;;;;;;;2.30;1.53;;;21.40;56.30;;;;;;5053687;28;20524;-69
2024/02/22 02:00:38;;;;;;;1.77;1.40;;;21.40;56.40;;;;;;5053567;28;20487;-69
2024/02/22 02:03:05;;;;;;;2.83;2.10;;;21.40;56.40;;;;;;5051045;28;20437;-69
2024/02/22 02:05:31;;;;;;;2.63;1.53;;;21.40;56.30;;;;;;5053552;28;20175;-69
2024/02/22 02:07:57;;;;;;;2.57;1.70;;;21.40;56.30;;;;;;5053382;28;20413;-69
2024/02/22 02:10:23;;;;;;;2.70;1.70;;;21.40;56.30;;;;;;5053306;28;20424;-69
2024/02/22 02:12:48;;;;;;;2.83;1.53;;;21.40;56.30;;;;;;5053391;28;20187;-69
2024/02/22 02:15:14;;;;;;;2.10;1.50;;;21.40;56.30;;;;;;5053299;28;20179;-69
2024/02/22 02:17:41;;;;;;;1.70;1.20;;;21.40;56.30;;;;;;5053205;28;20210;-70
2024/02/22 02:20:09;;;;;;;2.10;1.57;;;21.40;56.30;;;;;;5053313;28;20614;-69
2024/02/22 02:22:42;;;;;;;3.97;1.60;;;21.40;56.30;;;;;;5053461;28;20429;-69
2024/02/22 02:25:09;;;;;;;1.90;1.50;;;21.40;56.40;;;;;;5053173;28;20766;-69
2024/02/22 02:27:36;;;;;;;2.33;1.90;;;21.40;56.30;;;;;;5053513;28;20490;-69
2024/02/22 02:30:03;;;;;;;2.37;1.60;;;21.40;56.40;;;;;;5053125;28;20469;-70
2024/02/22 02:32:29;;;;;;;2.20;2.00;;;21.40;56.30;;;;;;5053008;28;20468;-70
2024/02/22 02:34:55;;;;;;;1.60;1.40;;;21.40;56.40;;;;;;5053049;28;20862;-69
2024/02/22 02:37:20;;;;;;;2.13;1.40;;;21.40;56.40;;;;;;5052888;28;20182;-68
2024/02/22 02:39:46;;;;;;;2.27;1.33;;;21.40;56.40;;;;;;5052894;28;20533;-69
2024/02/22 02:42:11;;;;;;;2.27;1.60;;;21.40;56.40;;;;;;5052955;28;20195;-69
2024/02/22 02:44:37;;;;;;;2.30;1.43;;;21.40;56.40;;;;;;5052698;28;20210;-70
2024/02/22 02:47:06;;;;;;;2.83;1.70;;;21.40;56.40;;;;;;5053059;28;20189;-70
2024/02/22 02:49:32;;;;;;;3.40;1.57;;;21.40;56.30;;;;;;5052857;28;20761;-70
2024/02/22 02:51:58;;;;;;;2.00;1.43;;;21.40;56.40;;;;;;5052379;28;20465;-70
2024/02/22 02:54:23;;;;;;;2.57;1.70;;;21.40;56.40;;;;;;5052681;28;20194;-69
2024/02/22 02:56:49;;;;;;;2.13;1.40;;;21.40;56.40;;;;;;5052811;28;20182;-69
2024/02/22 02:59:16;;;;;;;2.53;1.50;;;21.40;56.40;;;;;;5052521;28;20167;-69
2024/02/22 03:01:49;;;;;;;2.57;1.50;;;21.40;56.40;;;;;;5052337;28;20293;-69
2024/02/22 03:04:17;;;;;;;1.70;1.40;;;21.40;56.40;;;;;;5052419;28;20504;-69
2024/02/22 03:06:43;;;;;;;2.97;1.80;;;21.40;56.40;;;;;;5052246;28;20959;-69
2024/02/22 03:09:09;;;;;;;2.20;1.47;;;21.40;56.40;;;;;;5052354;28;20456;-69
2024/02/22 03:11:35;;;;;;;3.10;1.70;;;21.40;56.40;;;;;;5052044;28;20492;-69
2024/02/22 03:14:01;;;;;;;2.20;1.43;;;21.40;56.40;;;;;;5050571;28;20225;-70
2024/02/22 03:16:26;;;;;;;2.17;1.33;;;21.40;56.40;;;;;;5052315;28;20181;-69
2024/02/22 03:18:52;;;;;;;2.53;1.57;;;21.40;56.40;;;;;;5050353;28;20324;-69
2024/02/22 03:21:20;;;;;;;3.10;1.40;;;21.40;56.40;;;;;;5052089;28;20183;-68
2024/02/22 03:23:45;;;;;;;1.97;1.60;;;21.40;56.40;;;;;;5052194;28;20278;-69
2024/02/22 03:26:11;;;;;;;2.40;1.40;;;21.40;56.40;;;;;;5052170;28;21034;-68
2024/02/22 03:28:37;;;;;;;2.30;1.33;;;21.40;56.40;;;;;;5050493;28;20187;-70
2024/02/22 03:31:03;;;;;;;2.23;1.63;;;21.40;56.40;;;;;;5052097;28;20264;-69
2024/02/22 03:33:29;;;;;;;2.13;1.53;;;21.40;56.40;;;;;;5051731;28;20195;-69
2024/02/22 03:35:57;;;;;;;1.73;1.50;;;21.40;56.40;;;;;;5051806;28;20420;-69
2024/02/22 03:38:23;;;;;;;1.57;1.20;;;21.40;56.40;;;;;;5051851;28;20672;-69
2024/02/22 03:40:48;;;;;;;2.00;1.73;;;21.40;56.40;;;;;;5051872;28;20406;-69
2024/02/22 03:43:15;;;;;;;2.13;1.50;;;21.40;56.40;;;;;;5051807;28;20252;-69
2024/02/22 03:45:40;;;;;;;2.10;1.90;;;21.40;56.40;;;;;;5051845;28;20175;-68
2024/02/22 03:48:06;;;;;;;2.60;1.67;;;21.30;56.30;;;;;;5051542;28;20422;-69
2024/02/22 03:50:32;;;;;;;2.40;1.63;;;21.40;56.40;;;;;;5051572;28;20295;-69
2024/02/22 03:52:58;;;;;;;2.90;1.60;;;21.30;56.30;;;;;;5051507;28;20476;-69
2024/02/22 03:55:24;;;;;;;4.30;1.87;;;21.30;56.30;;;;;;5051298;28;20417;-69
2024/02/22 03:57:50;;;;;;;2.17;1.60;;;21.40;56.40;;;;;;5051520;28;20253;-68
2024/02/22 04:00:16;;;;;;;2.93;1.50;;;21.40;56.40;;;;;;5051418;28;20177;-69
2024/02/22 04:02:46;;;;;;;1.90;1.40;;;21.30;56.30;;;;;;5051727;28;20212;-69
2024/02/22 04:05:16;;;;;;;2.67;1.53;;;21.30;56.30;;;;;;5051121;28;20402;-69
2024/02/22 04:07:44;;;;;;;1.93;1.50;;;21.30;56.30;;;;;;5051267;28;20413;-69
2024/02/22 04:10:10;;;;;;;2.77;1.60;;;21.30;56.30;;;;;;5051330;28;20441;-68
2024/02/22 04:12:36;;;;;;;1.73;1.10;;;21.30;56.30;;;;;;5050968;28;20880;-69
2024/02/22 04:15:02;;;;;;;2.20;2.00;;;21.30;56.30;;;;;;5051216;28;20187;-69
2024/02/22 04:17:28;;;;;;;2.33;1.53;;;21.30;56.40;;;;;;5051212;28;20174;-69
2024/02/22 04:19:55;;;;;;;2.27;1.60;;;21.40;56.40;;;;;;5050967;28;20507;-69
2024/02/22 04:22:20;;;;;;;1.87;1.40;;;21.30;56.30;;;;;;5051160;28;20452;-69
2024/02/22 04:24:46;;;;;;;2.07;1.40;;;21.30;56.30;;;;;;5051137;28;20991;-68
2024/02/22 04:27:11;;;;;;;2.40;1.70;;;21.30;56.30;;;;;;5050551;28;20187;-70
2024/02/22 04:29:37;;;;;;;1.80;1.53;;;21.30;56.90;;;;;;5051155;28;20213;-69
2024/02/22 04:32:03;;;;;;;2.43;1.40;;;21.30;56.40;;;;;;5051037;28;20614;-69
2024/02/22 04:34:29;;;;;;;1.93;1.73;;;21.30;56.30;;;;;;5050799;28;20170;-69
2024/02/22 04:36:55;;;;;;;1.30;1.10;;;21.30;56.30;;;;;;5050673;28;20508;-69
2024/02/22 04:39:20;;;;;;;2.10;1.37;;;21.30;56.30;;;;;;5051062;28;20175;-68
2024/02/22 04:41:46;;;;;;;3.17;1.50;;;21.30;56.30;;;;;;5050645;28;21075;-69
2024/02/22 04:44:12;;;;;;;2.03;1.60;;;21.30;56.40;;;;;;5050740;28;20179;-69
2024/02/22 04:46:37;;;;;;;2.20;1.50;;;21.30;56.30;;;;;;5050659;28;20695;-68
2024/02/22 04:49:04;;;;;;;1.87;1.30;;;21.30;56.30;;;;;;5050591;28;20175;-69
2024/02/22 04:51:31;;;;;;;2.30;1.27;;;21.30;56.30;;;;;;5050403;28;20300;-69
2024/02/22 04:53:58;;;;;;;2.17;1.27;;;21.30;56.30;;;;;;5050562;28;20925;-69
2024/02/22 04:56:23;;;;;;;3.40;1.40;;;21.30;56.30;;;;;;5050670;28;20924;-69
2024/02/22 04:58:49;;;;;;;1.60;1.17;;;21.30;56.40;;;;;;5049579;28;20503;-69
2024/02/22 05:01:15;;;;;;;4.87;1.80;;;21.30;56.30;;;;;;5050417;28;20179;-69
2024/02/22 05:03:40;;;;;;;1.50;1.03;;;21.30;56.40;;;;;;5050336;28;20601;-68
2024/02/22 05:06:06;;;;;;;1.57;1.20;;;21.30;56.30;;;;;;5050521;28;20654;-66
2024/02/22 05:08:32;;;;;;;2.40;1.80;;;21.30;56.30;;;;;;5050688;28;20185;-69
2024/02/22 05:10:57;;;;;;;1.77;1.40;;;21.30;56.30;;;;;;5050703;28;20249;-70
2024/02/22 05:13:23;;;;;;;1.87;1.50;;;21.30;56.40;;;;;;5048856;28;20266;-68
2024/02/22 05:15:48;;;;;;;2.20;1.30;;;21.30;56.40;;;;;;5050544;28;20201;-68
2024/02/22 05:18:15;;;;;;;3.03;1.67;;;21.30;56.30;;;;;;5050078;28;20240;-68
2024/02/22 05:20:41;;;;;;;1.60;1.00;;;21.30;56.40;;;;;;5050401;28;20186;-67
2024/02/22 05:23:07;;;;;;;1.57;0.97;;;21.30;56.40;;;;;;5050399;28;20838;-69
2024/02/22 05:25:33;;;;;;;2.00;1.47;;;21.30;56.40;;;;;;5050257;28;20171;-68
2024/02/22 05:27:59;;;;;;;1.87;1.30;;;21.30;56.40;;;;;;5050408;28;20447;-69
2024/02/22 05:30:25;;;;;;;1.53;1.27;;;21.30;56.40;;;;;;5050134;28;20433;-68
2024/02/22 05:32:50;;;;;;;1.90;1.23;;;21.30;56.40;;;;;;5050204;28;21197;-68
2024/02/22 05:35:16;;;;;;;2.00;1.73;;;21.30;56.30;;;;;;5050500;28;20221;-69
2024/02/22 05:37:42;;;;;;;6.73;1.83;;;21.30;56.30;;;;;;5052154;28;20232;-69
2024/02/22 05:40:08;;;;;;;1.50;1.20;;;21.30;56.40;;;;;;5054030;28;20258;-69
2024/02/22 05:42:34;;;;;;;1.60;1.47;;;21.30;56.40;;;;;;5052429;28;20194;-69
2024/02/22 05:45:00;;;;;;;1.93;1.37;;;21.30;56.40;;;;;;5054111;28;20564;-68
2024/02/22 05:47:25;;;;;;;5.63;1.70;;;21.30;56.40;;;;;;5053754;28;20402;-68
2024/02/22 05:49:51;;;;;;;2.27;1.20;;;21.30;56.30;;;;;;5053810;28;20661;-69
2024/02/22 05:52:17;;;;;;;1.80;1.00;;;21.30;56.30;;;;;;5053409;28;20203;-68
2024/02/22 05:54:45;;;;;;;2.10;1.33;;;21.30;56.40;;;;;;5053885;28;20654;-68
2024/02/22 05:57:11;;;;;;;1.77;1.37;;;21.30;56.40;;;;;;5052262;28;20175;-69
2024/02/22 05:59:36;;;;;;;3.30;1.40;;;21.30;56.40;;;;;;5054044;28;20535;-68
2024/02/22 06:02:02;;;;;;;1.43;1.27;;;21.30;56.30;;;;;;5053442;28;20191;-69
2024/02/22 06:04:28;;;;;;;1.97;1.50;;;21.30;56.40;;;;;;5053364;28;20171;-68
2024/02/22 06:06:53;;;;;;;2.00;1.30;;;21.30;56.30;;;;;;5053433;28;20500;-69
2024/02/22 06:09:19;;;;;;;2.00;1.53;;;21.30;56.40;;;;;;5053324;28;20182;-69
2024/02/22 06:11:45;;;;;;;2.60;1.87;;;21.30;56.30;;;;;;5052526;28;20210;-69
2024/02/22 06:14:10;;;;;;;4.70;2.43;;;21.30;56.40;;;;;;5053744;28;20229;-69
2024/02/22 06:16:36;;;;;;;3.80;2.20;;;21.30;56.30;;;;;;5054218;28;20167;-69
2024/02/22 06:19:02;;;;;;;3.40;2.37;;;21.30;56.30;;;;;;5052462;28;20195;-68
2024/02/22 06:21:27;;;;;;;4.33;3.00;;;21.30;56.30;;;;;;5053565;28;20242;-69
2024/02/22 06:23:54;;;;;;;3.30;2.23;;;21.30;56.40;;;;;;5053590;28;20840;-69
2024/02/22 06:26:19;;;;;;;5.07;2.50;;;21.30;56.40;;;;;;5053798;28;20171;-68
2024/02/22 06:28:45;;;;;;;3.70;2.80;;;21.30;56.40;;;;;;5053589;28;20763;-69
2024/02/22 06:31:10;;;;;;;4.33;3.17;;;21.40;56.40;;;;;;5053709;28;20202;-68
2024/02/22 06:33:38;;;;;;;3.17;2.47;;;21.40;56.40;;;;;;5053674;28;20190;-68
2024/02/22 06:36:04;;;;;;;3.30;2.23;;;21.40;56.40;;;;;;5054120;28;20193;-69
2024/02/22 06:38:30;;;;;;;7.93;2.30;;;21.40;56.30;;;;;;5053688;28;20408;-69
2024/02/22 06:40:56;;;;;;;5.57;2.67;;;21.40;56.40;;;;;;5053938;28;20421;-69
2024/02/22 06:43:21;;;;;;;3.17;2.40;;;21.40;56.30;;;;;;5053903;28;20199;-68
2024/02/22 06:45:47;;;;;;;3.80;2.63;;;21.50;56.40;;;;;;5054021;28;20557;-68
2024/02/22 06:48:12;;;;;;;2.43;1.90;;;21.50;56.40;;;;;;5053073;28;20186;-69
2024/02/22 06:50:38;;;;;;;2.80;2.13;;;21.50;56.30;;;;;;5053095;28;20202;-68
2024/02/22 06:53:04;;;;;;;2.87;2.03;;;21.50;56.30;;;;;;5053665;28;20197;-69
2024/02/22 06:55:31;;;;;;;2.90;2.50;;;21.50;56.30;;;;;;5053230;28;20175;-68
2024/02/22 06:57:57;;;;;;;3.27;2.40;;;21.50;56.30;;;;;;5054436;28;20563;-69
2024/02/22 07:00:23;;;;;;;2.70;2.00;;;21.50;56.30;;;;;;5053245;28;21248;-69
2024/02/22 07:02:49;;;;;;;2.77;2.43;;;21.50;56.30;;;;;;5053087;28;20424;-67
2024/02/22 07:05:15;;;;;;;2.70;1.90;;;21.50;56.30;;;;;;5053366;28;20405;-69
2024/02/22 07:07:41;;;;;;;3.27;2.07;;;21.50;56.20;;;;;;5053252;28;20413;-69
2024/02/22 07:10:07;;;;;;;3.30;2.20;;;21.60;56.30;;;;;;5053052;28;20639;-69
2024/02/22 07:12:33;;;;;;;3.53;1.97;;;21.60;56.30;;;;;;5052830;28;20207;-69
2024/02/22 07:14:59;;;;;;;4.80;2.33;;;21.60;56.20;;;;;;5053173;28;20919;-69
2024/02/22 07:17:25;;;;;;;3.00;2.70;;;21.60;56.20;;;;;;5051755;28;20654;-68
2024/02/22 07:19:50;;;;;;;3.43;2.00;;;21.60;56.20;;;;;;5053296;28;20500;-68
2024/02/22 07:22:17;;;;;;;2.23;1.70;;;21.60;56.20;;;;;;5053181;28;20233;-69
2024/02/22 07:24:42;;;;;;;2.90;1.87;;;21.60;56.20;;;;;;5053099;28;20660;-69
2024/02/22 07:27:09;;;;;;;2.20;1.97;;;21.60;56.20;;;;;;5053183;28;20488;-68
2024/02/22 07:29:35;;;;;;;2.73;2.00;;;21.60;56.20;;;;;;5053140;28;21003;-66
2024/02/22 07:32:00;;;;;;;3.20;2.10;;;21.60;56.20;;;;;;5052487;28;20472;-68
2024/02/22 07:34:26;;;;;;;2.50;1.70;;;21.60;56.20;;;;;;5052879;28;20179;-68
2024/02/22 07:36:51;;;;;;;2.87;1.80;;;21.70;56.30;;;;;;5052668;28;20178;-69
2024/02/22 07:39:17;;;;;;;3.40;2.20;;;21.70;56.30;;;;;;5053130;28;20190;-68
2024/02/22 07:41:43;;;;;;;2.70;1.97;;;21.70;56.30;;;;;;5052722;28;20171;-69
2024/02/22 07:44:09;;;;;;;3.50;2.43;;;21.60;56.20;;;;;;5051323;28;20210;-68
2024/02/22 07:46:34;;;;;;;2.70;1.93;;;21.70;56.20;;;;;;5052691;28;20576;-67
2024/02/22 07:49:00;;;;;;;2.63;2.40;;;21.70;56.80;;;;;;5052529;28;20186;-68
2024/02/22 07:51:25;;;;;;;1.80;1.30;;;21.70;56.30;;;;;;5052355;28;20677;-69
2024/02/22 07:53:52;;;;;;;2.83;2.03;;;21.70;56.30;;;;;;5052350;28;20207;-70
2024/02/22 07:56:18;;;;;;;3.00;2.27;;;21.70;56.30;;;;;;5052259;28;20179;-70
2024/02/22 07:58:47;;;;;;;4.40;2.80;;;21.70;56.30;;;;;;5052450;28;20405;-70
2024/02/22 08:01:14;;;;;;;2.70;2.00;;;21.70;56.30;;;;;;5051436;28;20185;-69
2024/02/22 08:03:40;;;;;;;2.43;1.80;;;21.70;56.30;;;;;;5052150;28;20433;-69
2024/02/22 08:06:06;;;;;;;3.43;2.43;;;21.70;56.30;;;;;;5052400;28;20970;-70
2024/02/22 08:08:32;;;;;;;2.70;2.13;;;21.70;56.30;;;;;;5052070;28;20417;-69
2024/02/22 08:10:57;;;;;;;4.10;2.37;;;21.70;56.30;;;;;;5052319;28;20199;-69
2024/02/22 08:13:23;;;;;;;3.97;3.10;;;21.70;56.30;;;;;;5051627;28;20747;-69
2024/02/22 08:15:49;;;;;;;5.27;2.40;;;21.70;56.30;;;;;;5052193;28;20194;-70
2024/02/22 08:18:14;;;;;;;5.07;2.53;;;21.70;56.30;;;;;;5052251;28;20187;-69
2024/02/22 08:20:40;;;;;;;4.03;2.73;;;21.70;56.40;;;;;;5050638;28;20197;-69
2024/02/22 08:23:08;;;;;;;3.40;2.30;;;21.70;56.40;;;;;;5051868;28;20187;-70
2024/02/22 08:25:36;;;;;;;3.50;2.53;;;21.70;56.40;;;;;;5052327;28;20167;-70
2024/02/22 08:28:05;;;;;;;3.30;1.80;;;21.70;56.40;;;;;;5051752;28;20437;-69
2024/02/22 08:30:31;;;;;;;5.63;2.43;;;21.70;56.40;;;;;;5051661;28;20437;-67
2024/02/22 08:32:57;;;;;;;3.17;1.93;;;21.70;56.40;;;;;;5052192;28;21105;-68
2024/02/22 08:35:23;;;;;;;3.40;2.10;;;21.70;56.40;;;;;;5051701;28;20190;-69
2024/02/22 08:37:49;;;;;;;3.30;2.67;;;21.70;56.40;;;;;;5051816;28;20907;-70
2024/02/22 08:40:14;;;;;;;3.13;2.50;;;21.70;56.40;;;;;;5051362;28;20174;-69
2024/02/22 08:42:40;;;;;;;4.20;2.40;;;21.70;56.40;;;;;;5051311;28;20191;-69
2024/02/22 08:45:06;;;;;;;3.20;2.27;;;21.70;56.40;;;;;;5051779;28;20523;-69
2024/02/22 08:47:31;;;;;;;4.10;3.00;;;21.70;56.40;;;;;;5051889;28;20183;-70
2024/02/22 08:49:58;;;;;;;3.17;1.90;;;21.70;56.40;;;;;;5051269;28;20174;-70
2024/02/22 08:52:24;;;;;;;4.47;2.80;;;21.70;56.40;;;;;;5051303;28;20697;-69
2024/02/22 08:54:51;;;;;;;4.80;3.93;;;21.70;56.40;;;;;;5051527;28;20409;-67
2024/02/22 08:57:17;;;;;;;5.40;2.83;;;21.70;56.40;;;;;;5052000;28;20413;-69
2024/02/22 08:59:43;;;;;;;2.27;2.07;;;21.70;56.40;;;;;;5051835;28;20489;-70
2024/02/22 09:02:09;;;;;;;4.30;2.67;;;21.70;56.40;;;;;;5051338;28;20736;-70
2024/02/22 09:04:35;;;;;;;4.47;2.93;;;21.70;56.40;;;;;;5051177;28;20421;-69
2024/02/22 09:07:01;;;;;;;5.70;3.83;;;21.70;56.40;;;;;;5051485;28;20584;-70
2024/02/22 09:09:28;;;;;;;6.23;3.13;;;21.70;56.40;;;;;;5049949;28;20424;-69
2024/02/22 09:11:54;;;;;;;5.20;3.17;;;21.70;56.40;;;;;;5051684;28;20198;-68
2024/02/22 09:14:19;;;;;;;6.40;3.00;;;21.70;56.70;;;;;;5055674;28;20405;-68
2024/02/22 09:16:45;;;;;;;5.40;3.83;;;21.70;56.40;;;;;;5055135;28;20409;-69
2024/02/22 09:19:11;;;;;;;7.00;3.83;;;21.70;56.50;;;;;;5054689;28;20198;-69
2024/02/22 09:21:37;;;;;;;5.77;3.20;;;21.70;56.40;;;;;;5055570;28;20241;-69
2024/02/22 09:24:03;;;;;;;5.97;3.50;;;21.70;56.50;;;;;;5055140;28;20253;-70
2024/02/22 09:26:29;;;;;;;7.47;3.50;;;21.70;56.50;;;;;;5055343;28;20413;-70
2024/02/22 09:28:55;;;;;;;5.10;3.63;;;21.70;56.50;;;;;;5055147;28;20821;-70
2024/02/22 09:31:21;;;;;;;3.50;2.80;;;21.80;56.60;;;;;;5054405;28;20203;-69
2024/02/22 09:33:47;;;;;;;4.63;2.93;;;21.70;56.50;;;;;;5054851;28;21345;-69
2024/02/22 09:36:13;;;;;;;5.47;3.07;;;21.70;56.50;;;;;;5055020;28;20167;-71
2024/02/22 09:38:39;;;;;;;5.40;3.70;;;21.70;57.10;;;;;;5054800;28;20981;-67
2024/02/22 09:41:05;;;;;;;7.40;4.00;;;21.70;56.50;;;;;;5054783;28;20179;-69
2024/02/22 09:43:31;;;;;;;5.50;3.60;;;21.70;56.50;;;;;;5054673;28;20256;-70
2024/02/22 09:45:57;;;;;;;4.63;3.00;;;21.70;56.50;;;;;;5054899;28;20437;-70
2024/02/22 09:48:22;;;;;;;6.10;4.07;;;21.70;56.50;;;;;;5054320;28;20452;-70
2024/02/22 09:50:48;;;;;;;4.80;3.00;;;21.70;56.50;;;;;;5053199;28;20202;-70
2024/02/22 09:53:14;;;;;;;5.03;2.70;;;21.70;56.50;;;;;;5054688;28;20686;-69
2024/02/22 09:55:40;;;;;;;4.60;2.97;;;21.70;56.60;;;;;;5054604;28;20412;-68
2024/02/22 09:58:06;;;;;;;4.50;3.10;;;21.70;56.50;;;;;;5054925;28;20198;-70
2024/02/22 10:00:31;;;;;;;4.20;2.90;;;21.70;56.50;;;;;;5054419;28;20405;-70
2024/02/22 10:02:57;;;;;;;5.30;3.17;;;21.70;56.50;;;;;;5054350;28;20205;-69
2024/02/22 10:05:23;;;;;;;5.37;3.30;;;21.70;56.50;;;;;;5054260;28;20254;-69
2024/02/22 10:07:49;;;;;;;5.20;3.27;;;21.70;56.50;;;;;;5055222;28;20413;-70
2024/02/22 10:10:25;;;;;;;4.73;3.00;;;21.70;56.50;;;;;;5054226;28;20175;-68
2024/02/22 10:12:52;;;;;;;4.97;2.93;;;21.70;56.50;;;;;;5054615;28;20234;-68
2024/02/22 10:15:20;;;;;;;4.57;2.97;;;21.70;56.60;;;;;;5054427;28;20406;-68
2024/02/22 10:17:46;;;;;;;7.13;4.53;;;21.70;56.60;;;;;;5054619;28;20410;-66
2024/02/22 10:20:14;;;;;;;6.10;2.67;;;21.70;56.60;;;;;;5053372;28;20508;-69
2024/02/22 10:22:40;;;;;;;5.13;3.70;;;21.70;56.60;;;;;;5054583;28;20444;-69
2024/02/22 10:25:11;;;;;;;5.90;3.30;;;21.70;56.60;;;;;;5052771;28;20258;-68
2024/02/22 10:27:38;;;;;;;3.33;2.83;;;21.70;56.60;;;;;;5054438;28;20522;-69
2024/02/22 10:30:11;;;;;;;5.80;3.50;;;21.70;56.60;;;;;;5054106;28;20401;-71
2024/02/22 10:32:41;;;;;;;4.03;3.03;;;21.70;56.60;;;;;;5053970;28;20468;-70
2024/02/22 10:35:08;;;;;;;5.40;3.13;;;21.70;56.70;;;;;;5054365;28;20496;-70
2024/02/22 10:37:35;;;;;;;4.67;3.00;;;21.70;56.60;;;;;;5054185;28;20942;-68
2024/02/22 10:40:03;;;;;;;6.40;2.97;;;21.70;56.60;;;;;;5054110;28;20409;-69
2024/02/22 10:42:29;;;;;;;4.30;3.10;;;21.70;56.70;;;;;;5053720;28;20500;-69
2024/02/22 10:44:55;;;;;;;6.70;3.63;;;21.70;56.60;;;;;;5053769;28;20416;-69
2024/02/22 10:47:21;;;;;;;4.57;2.90;;;21.70;56.70;;;;;;5053916;28;20413;-68
2024/02/22 10:49:48;;;;;;;4.87;3.00;;;21.70;56.70;;;;;;5053439;28;20414;-69
2024/02/22 10:52:15;;;;;;;4.73;3.77;;;21.70;56.70;;;;;;5053085;28;20506;-69
2024/02/22 10:54:49;;;;;;;5.20;3.37;;;21.70;56.70;;;;;;5053673;28;20855;-69
2024/02/22 10:57:18;;;;;;;5.10;2.90;;;21.70;56.70;;;;;;5053509;28;20425;-70
2024/02/22 10:59:45;;;;;;;7.50;3.47;;;21.70;56.60;;;;;;5053482;28;20398;-70
2024/02/22 11:02:12;;;;;;;5.57;3.57;;;21.70;56.70;;;;;;5053447;28;20461;-69
2024/02/22 11:04:38;;;;;;;5.73;2.90;;;21.70;56.70;;;;;;5053339;28;20466;-70
2024/02/22 11:07:05;;;;;;;4.63;3.40;;;21.70;56.70;;;;;;5051724;28;20516;-70
2024/02/22 11:09:40;;;;;;;4.90;3.17;;;21.70;56.70;;;;;;5052919;28;20418;-70
2024/02/22 11:12:07;;;;;;;4.50;2.80;;;21.70;56.70;;;;;;5053261;28;20543;-69
2024/02/22 11:14:37;;;;;;;4.87;3.20;;;21.70;56.70;;;;;;5053122;28;20410;-70
2024/02/22 11:17:26;;;;;;;8.10;3.70;;;21.70;56.70;;;;;;5052838;28;20508;-66
2024/02/22 11:19:54;;;;;;;4.17;2.60;;;21.70;56.70;;;;;;5053065;28;20425;-68
2024/02/22 11:22:20;;;;;;;5.37;2.83;;;21.70;56.70;;;;;;5053577;28;20437;-68
2024/02/22 11:24:48;;;;;;;5.80;3.20;;;21.70;56.70;;;;;;5052720;28;20405;-69
2024/02/22 11:27:18;;;;;;;3.93;2.70;;;21.70;56.70;;;;;;5052840;28;20410;-69
2024/02/22 11:29:43;;;;;;;5.63;3.33;;;21.70;56.70;;;;;;5052780;28;20410;-69
2024/02/22 11:32:12;;;;;;;5.60;3.10;;;21.70;56.70;;;;;;5051033;28;20480;-69
2024/02/22 11:34:39;;;;;;;4.43;2.93;;;21.70;56.70;;;;;;5052148;28;20402;-70
2024/02/22 11:37:16;;;;;;;4.80;2.63;;;21.70;56.70;;;;;;5052497;28;20723;-70
2024/02/22 11:39:43;;;;;;;4.37;3.13;;;21.70;56.70;;;;;;5052813;28;20730;-71
2024/02/22 11:42:16;;;;;;;3.30;2.80;;;21.70;56.70;;;;;;5052352;28;20433;-68
2024/02/22 11:44:42;;;;;;;3.30;2.37;;;21.70;56.70;;;;;;5051638;28;20429;-69
2024/02/22 11:47:08;;;;;;;4.93;2.87;;;21.70;56.70;;;;;;5053112;28;20424;-69
2024/02/22 11:49:35;;;;;;;4.53;3.17;;;21.70;56.70;;;;;;5052891;28;20417;-67
2024/02/22 11:52:02;;;;;;;3.80;2.60;;;21.70;56.70;;;;;;5053229;28;20210;-68
2024/02/22 11:54:27;;;;;;;5.03;3.10;;;21.70;56.80;;;;;;5050935;28;20449;-68
2024/02/22 11:56:53;;;;;;;3.90;2.70;;;21.70;56.80;;;;;;5052351;28;20506;-70
2024/02/22 11:59:19;;;;;;;4.30;2.30;;;21.70;56.80;;;;;;5052882;28;20171;-69
2024/02/22 12:01:46;;;;;;;3.20;2.70;;;21.70;56.70;;;;;;5053003;28;20190;-69
2024/02/22 12:04:12;;;;;;;3.63;2.40;;;21.70;56.70;;;;;;5052425;28;20815;-68
2024/02/22 12:06:38;;;;;;;3.83;3.07;;;21.70;56.70;;;;;;5052350;28;20428;-70
2024/02/22 12:09:04;;;;;;;5.17;3.50;;;21.70;56.80;;;;;;5052463;28;20179;-70
2024/02/22 12:11:30;;;;;;;5.40;3.10;;;21.70;56.70;;;;;;5051040;28;20468;-67
2024/02/22 12:13:59;;;;;;;4.23;2.57;;;21.70;56.70;;;;;;5052803;28;20415;-68
2024/02/22 12:16:29;;;;;;;5.13;3.20;;;21.70;56.70;;;;;;5052740;28;20266;-69
2024/02/22 12:18:55;;;;;;;13.90;7.90;;;21.70;56.70;;;;;;5052472;28;20445;-69
2024/02/22 12:21:22;;;;;;;22.57;12.73;;;21.70;56.80;;;;;;5050559;28;20487;-68
2024/02/22 12:23:49;;;;;;;39.10;23.17;;;21.70;56.70;;;;;;5052463;28;20437;-68
2024/02/22 12:26:18;;;;;;;45.83;24.63;;;21.80;56.80;;;;;;5052584;28;20417;-68
2024/02/22 12:28:49;;;;;;;56.63;28.87;;;21.70;56.70;;;;;;5052019;28;20444;-69
2024/02/22 12:31:20;;;;;;;89.10;45.50;;;21.70;57.20;;;;;;5050812;28;20963;-69
2024/02/22 12:33:50;;;;;;;126.20;59.10;;;21.70;56.80;;;;;;5052256;28;20433;-69
2024/02/22 12:36:21;;;;;;;85.23;40.47;;;21.80;56.80;;;;;;5052174;28;20401;-69
2024/02/22 12:38:48;;;;;;;131.07;61.50;;;21.80;56.80;;;;;;5052775;28;20402;-70
2024/02/22 12:41:14;;;;;;;164.90;76.30;;;21.70;56.80;;;;;;5052100;28;20780;-69